x

South Santa Rosa Is. Ca (46069) Wave Buoy

12:50 - Sun 4th Dec 2016 All times are PST. -8 hours from GMT.

  • Sig Wave height 8.9ft
  • Swell Direction
  • Peak Period 19s
  • Average Period 8s
  • Wind
    20mph, 25mph gusts
  • Sea Temp 58°f
  • Ar Temp 58°f
  • Sea Pressure 1018.1mb
  • South Santa Rosa Is. Ca
  • South Santa Rosa Is. Ca

More Historic Weather Station data

Upgrade to MSW Pro to gain access to the past 30 days of data for over 8000 Wavebouys and Weather Stations around the globe.

Join Pro

Comparision Forecast

View Surf forecast
   
Dom 12/04 12:50 9ft 19s 8s 20 25 mph 1018.1mb 58f 58f
Sáb 12/03 11:50 10ft 19s 9s 22 27 mph 1018.2mb 58f 58f
10:50 9ft 19s 8s 20 25 mph 1018.2mb 58f 58f
9:50 10ft 19s 9s 16 18 mph 1018.8mb 58f 58f
8:50 9ft 19s 8s 16 20 mph 1018.9mb 59f 58f
7:50 9.5ft 19s 9s 18 20 mph 1018.5mb 59f 58f
6:50 8ft 19s 8s 16 20 mph 1018.9mb 58f 58f
5:50 8ft 19s 8s 16 20 mph 1018.9mb 58f 58f
3:50 7.5ft 19s 8s 13 18 mph 1018.9mb 59f 58f
2:50 7.5ft 19s 8s 16 18 mph 1019.3mb 59f 58f
1:50 8ft 19s 8s 13 18 mph 1019.2mb 58f 57f
12:50 8ft 21s 8s 9 11 mph 1019.8mb 58f 56f
11:50 8ft 21s 8s 11 16 mph 1020.4mb 58f 56f
10:50 7.5ft 11s 7s 11 13 mph 1021.4mb 58f 56f
9:50 8ft 11s 7s 16 18 mph 1021.7mb 58f 56f
8:50 9ft 9s 8s 18 20 mph 1021.2mb 58f 56f
7:50 8ft 10s 8s 9 11 mph 1021.2mb 58f 56f
6:50 8ft 11s 8s 9 11 mph 1021mb 58f 56f
5:50 8ft 13s  -  9 11 mph 1020.7mb 58f 56f
4:50 8ft 12s 8s 11 13 mph 1020.3mb 58f 56f
3:50 7.5ft 12s 8s 11 13 mph 1020.2mb 58f 57f
2:50 7ft 12s 8s 9 11 mph 1020.2mb 58f 57f
1:50 8ft 12s 8s 7 9 mph 1020.4mb 58f 57f
12:50 8.5ft 10s 8s 7 9 mph 1020.5mb 58f 57f
Sex 12/02 11:50 8ft 10s 8s 4 7 mph 1020.4mb 58f 56f
10:50 8ft 13s 8s 4 7 mph 1020.5mb 58f 57f
9:50 9ft 12s 8s 7 9 mph 1020.1mb 58f 58f
8:50 9ft 12s 8s 9 11 mph 1019.4mb 58f 58f
7:50 10ft 12s 8s 11 13 mph 1019.4mb 58f 58f
6:50 9.5ft 13s 8s 9 11 mph 1019.3mb 58f 58f
5:50 9.5ft 13s 8s 16 18 mph 1018.6mb 58f 57f
4:50 9ft 13s 8s 18 20 mph 1018.3mb 58f 57f
3:50 10ft 11s 8s 18 22 mph 1017.8mb 58f 57f
2:50 9.5ft 13s 9s 9 13 mph 1017.7mb 58f 57f
1:50 10.5ft 12s 9s 4 7 mph 1017.5mb 58f 56f
12:50 10ft 14s 8s 4 9 mph 1018mb 58f 55f
11:50 9.5ft 13s 8s 13 18 mph 1018.4mb 58f 55f
10:50 10ft 12s 8s 11 16 mph 1018.9mb 58f 55f
9:50 10ft 13s 8s 11 16 mph 1019mb 58f 55f
8:50 10.5ft 13s 8s 13 16 mph 1018.7mb 58f 55f
7:50 12ft 11s 8s 16 20 mph 1017.8mb 58f 56f
6:50 12ft 11s 8s 18 22 mph 1017mb 58f 56f
5:50 11ft 14s 8s 22 29 mph 1016.4mb 58f 56f
4:50 11.5ft 11s 8s 22 29 mph 1015.7mb 58f 56f
3:50 13ft 14s 9s 25 31 mph 1014.8mb 58f 56f
2:50 12.5ft 15s 8s 29 34 mph 1014.6mb 58f 56f
1:50 11.5ft 13s 8s 27 29 mph 1015.1mb 58f 57f
12:50 11ft 11s 7s 25 31 mph 1015.5mb 58f 57f
Qui 12/01 11:50 11ft 13s 7s 27 31 mph 1014.6mb 58f 57f
10:50 10.5ft 10s 7s 27 34 mph 1014.8mb 58f 57f
9:50 11ft 13s 7s 27 31 mph 1015mb 58f 57f
8:50 11ft 13s 7s 29 36 mph 1015.1mb 58f 57f
7:50 12ft 12s 7s 31 38 mph 1014.3mb 59f 57f
6:50 10.5ft 13s 7s 31 36 mph 1014.4mb 59f 57f
5:50 10.5ft 9s 7s 27 34 mph 1014.5mb 59f 57f
4:50 9.5ft 13s 7s 27 36 mph 1014.1mb 59f 57f
3:50 10ft 13s 7s 29 34 mph 1014.1mb 59f 57f
2:50 9.5ft 13s 7s 27 31 mph 1013.8mb 59f 57f
1:50 9ft 12s 7s 25 29 mph 1014mb 59f 57f
12:50 9ft 14s 7s 25 29 mph 1014.6mb 58f 56f
11:50 9ft 14s 7s 22 25 mph 1015.2mb 58f 56f
10:50 9ft 13s 7s 18 22 mph 1015.8mb 58f 56f
8:50 8.5ft 7s 6s 20 25 mph 1015.2mb 58f 56f
7:50 8.5ft 8s 7s 25 29 mph 1014.5mb 58f 57f
6:50 8.5ft 8s 7s 25 29 mph 1014.5mb 58f 56f
5:50 8.5ft 15s 7s 27 31 mph 1014.2mb 58f 56f
4:50 8ft 13s 7s 25 31 mph 1013.9mb 58f 56f
3:50 7ft 12s 6s 22 29 mph 1014.6mb 58f 56f
2:50 7ft 13s 6s 25 29 mph 1015.4mb 58f 56f
1:50 7ft 13s 6s 20 25 mph 1015.8mb 57f 56f
12:50 8ft 13s 6s 22 27 mph 1016mb 57f 56f
Qua 11/30 11:50 7.5ft 13s 6s 25 31 mph 1016.3mb 57f 56f
10:50 7.5ft 14s 6s 25 29 mph 1016.6mb 57f 56f
9:50 8ft 14s 7s 25 29 mph 1016.5mb 56f 56f
8:50 7.5ft 11s 6s 22 27 mph 1016mb 57f 57f
7:50 8ft 14s 7s 22 27 mph 1016.3mb 57f 57f
6:50 8ft 14s 7s 20 22 mph 1016.4mb 57f 56f
5:50 8ft 15s 7s 20 25 mph 1016.2mb 57f 56f
4:50 7ft 14s 7s 20 25 mph 1016.1mb 58f 56f
3:50 8ft 15s 8s 20 25 mph 1016.5mb 58f 57f
2:50 8ft 14s 9s 20 25 mph 1016.6mb 58f 57f
1:50 8ft 14s 9s 16 20 mph 1016.6mb 57f 57f
12:50 8.5ft 16s 9s 13 18 mph 1017.1mb 57f 57f
11:50 9ft 15s 9s 11 13 mph 1018.1mb 57f 57f
10:50 8.5ft 16s 9s 13 16 mph 1019.2mb 57f 56f